Midland, TX

3:42 AM CST on February 23, 2017 (GMT -0600)
Midland International | | Change Station
Active Advisory: Fire Weather Warning

Elev 2871 ft 31.94 °N, 102.20 °W | Updated 49 minutes ago

Clear
Clear
61 °F
Feels Like 61 °F
N
9
Wind Variable Wind from SW

Today
High -- | Low -- °F
--% Chance of Precip.
Yesterday
High -- | Low -- °F
Precip. -- in
Pressure 29.60 in
Visibility 10.0 miles
Clouds Clear
Dew Point 30 °F
Humidity 31%
Rainfall 0.00 in
Snow Depth Not available.
7:22 AM 6:42 PM
Waning Crescent, 11% visible
METAR KMAF 230853Z AUTO 22008KT 10SM CLR 16/M01 A2973 RMK AO2 SLP024 T01611011 58016
Pressure 29.60 in
Visibility 10.0 miles
Clouds Clear
Dew Point 30 °F
Humidity 31%
Rainfall 0.00 in
Snow Depth Not available.
7:22 AM 6:42 PM
Waning Crescent, 11% visible
METAR KMAF 230853Z AUTO 22008KT 10SM CLR 16/M01 A2973 RMK AO2 SLP024 T01611011 58016

Get Your Daily Forecast Email!

Thanks for signing up!

Be on the lookout for a verification email in your inbox.

You'll start receiving the daily forecast at 8 AM.

×

10-Day Weather Forecast

Almanac

Astronomy

Feb. 23, 2017 Rise Set
Actual Time
Civil Twilight
Nautical Twilight
Astronomical Twilight
Moon
Length of Visible Light
Length of Day
Tomorrow will be .
, % of the Moon is Illuminated

Today's Extremes

State Highs State Lows

Community

WunderPhotos

Upload Photos

1,962,540 photos uploaded!

WunderBlog® & News

Nearby

Air Quality

  Air Quality AQ Index Pollutant
Not available.

Snow Depth

Station Depth Elevation

Earthquake Activity

City Distance Mag. Time & Date
Minimum magnitude displayed is 2.5.

Coastal Water Temperatures

Place Temperature

Stations

Nearby Weather Stations

Station Location Temp. Windchill Dew Point Humidity Wind Precip. Elev Updated Type
                   

Watches & Warnings

Fire Weather Warning
Issued: 8:01 PM MST Feb. 22, 2017 – National Weather Service

... Red flag warning remains in effect from 11 am CST /10 am MST/
to 8 PM CST /7 PM MST/ Thursday for warm... dry... very windy... and
very high to extreme fire danger for most of the Permian Basin
and trans Pecos area...

* wind... 25 to 45 mph. Higher gusts.

* Temperatures... 15 to 20 degrees above normal.

* Humidity... 8 to 15 percent.

* Impacts... any fires that develop will likely spread rapidly.
Outdoor burning is not recommended.

Precautionary/preparedness actions... this is a very dangerous
fire weather situation. Strong winds and very low relative
humidities combined with above normal temperatures will create
weather conditions favorable for the multiple occurrence of large
fires.